General Lavalle, Argentina
Current Conditions -  °F | °C
As of 3:00 PM on Sunday 25 Jan 2015 (Local Time) from SAZM Reporting Station
Clear Clear  
Wind Chill: 81°   Ceiling: Unl
Heat Index: 81°   Visibility: 6mi
Dew Point: 61°   Wind: 14mph
Humidity: 51%   Direction: 180°S
Pressure: 29.8"   Gusts: NA
Location:  36.4°S, 56.97°W
Report Text: SAZM 251800Z 18012KT CAVOK 27/16 Q1009
Loading
Personal Weather Stations






























Interactive Weather Map New forecast layout! Learn more

10-Day Weather Forecast

Advertisements
Track Severe Weather on mobile